Latest Weather Observations for Pallamana

IDS60801

Issued at 12:35 pm CST Monday 21 April 2014 (issued every 30 minutes, with the page automatically refreshed every 10 minutes)

About weather observations | Map of weather stations | Latest weather observations for SA | Other Formats
Station Details ID: 024584 Name: PALLAMANA AERODROME Lat: -35.06 Lon: 139.23 Height: 45.0 m
Data from the previous 72 hours. | See also: Recent months at Pallamana
Date/Time
CST
Temp
°C
App
Temp
°C
Dew
Point
Rel
Hum
%
Delta-T
°C
Wind Press
QNH
hPa
Press
MSL
hPa
Rain
since 9 am
mm
Dir
 
Spd
km/h
Gust
km/h
Spd
kts
Gust
kts
21/12:31pm 27.9 21.0 7.4 27 11.0 NNW 33 52 18 28 1012.5 - 0.0
21/12:30pm 27.9 20.6 7.1 26 11.1 NNW 35 52 19 28 1012.5 - 0.0
21/12:24pm 28.0 21.1 7.3 27 11.1 NNW 33 52 18 28 1012.5 - 0.0
21/12:00pm 24.5 20.3 9.7 39 8.1 N 22 32 12 17 1012.9 1012.8 0.0
21/11:30am 22.5 16.9 10.0 45 6.8 N 30 35 16 19 1013.5 - 0.0
21/11:00am 21.4 15.2 9.5 46 6.4 N 32 39 17 21 1014.0 - 0.0
21/10:30am 20.8 14.5 8.9 46 6.3 N 32 43 17 23 1014.2 - 0.0
21/10:00am 19.7 13.1 8.4 48 5.9 N 33 43 18 23 1014.5 - 0.0
21/09:30am 18.8 11.7 7.9 49 5.6 N 35 43 19 23 1014.9 - 0.0
21/09:00am 18.1 11.4 7.4 49 5.4 N 32 41 17 22 1015.0 1015.0 0.0
21/08:30am 17.0 10.1 7.4 53 4.8 N 33 44 18 24 1015.2 - 0.0
21/08:00am 16.5 9.8 7.3 54 4.6 N 32 43 17 23 1015.3 - 0.0
21/07:30am 15.1 8.8 7.2 59 3.9 NNE 30 37 16 20 1015.2 - 0.0
21/07:00am 15.3 8.6 7.2 58 4.0 N 32 41 17 22 1015.1 - 0.0
21/06:30am 15.3 8.3 7.0 57 4.1 N 33 43 18 23 1015.1 - 0.0
21/06:00am 15.1 8.4 7.2 59 3.9 N 32 39 17 21 1015.0 1015.0 0.0
21/05:30am 15.4 8.6 7.1 57 4.1 N 32 37 17 20 1015.0 - 0.0
21/05:00am 15.4 10.1 6.8 56 4.2 NNE 24 32 13 17 1015.1 - 0.0
21/04:30am 15.5 9.9 7.2 57 4.1 N 26 32 14 17 1015.3 - 0.0
21/04:00am 15.0 10.3 7.8 62 3.6 N 22 28 12 15 1015.4 - 0.0
21/03:30am 13.6 10.6 9.1 74 2.3 N 15 20 8 11 1015.7 - 0.0
21/03:00am 12.6 9.7 9.7 82 1.5 NNE 15 19 8 10 1015.8 1015.8 0.0
21/02:30am 12.7 10.7 10.2 85 1.3 NNE 11 15 6 8 1016.3 - 0.0
21/02:00am 12.4 10.9 10.7 89 0.9 N 9 11 5 6 1016.9 - 0.0
21/01:30am 12.3 11.2 10.8 90 0.8 N 7 9 4 5 1017.1 - 0.0
21/01:00am 12.2 11.1 10.7 90 0.8 N 7 9 4 5 1017.3 - 0.0
21/12:30am 11.2 9.9 9.8 91 0.7 N 7 9 4 5 1017.7 - 0.0
21/12:00am 10.6 9.2 9.0 90 0.8 NNW 6 7 3 4 1017.8 1017.8 0.0
 
Date/Time
CST
Temp
°C
App
Temp
°C
Dew
Point
Rel
Hum
%
Delta-T
°C
Wind Press
QNH
hPa
Press
MSL
hPa
Rain
since 9 am
mm
Dir
 
Spd
km/h
Gust
km/h
Spd
kts
Gust
kts
20/11:30pm 11.5 9.4 9.9 90 0.8 NNW 11 13 6 7 1018.1 - 0.0
20/11:00pm 11.1 9.3 9.5 90 0.8 NNW 9 9 5 5 1018.3 - 0.0
20/10:30pm 11.1 9.9 9.5 90 0.8 NNW 6 7 3 4 1018.6 - 0.0
20/10:00pm 11.3 11.3 9.7 90 0.8 CALM 0 0 0 0 1019.1 - 0.0
20/09:30pm 11.0 10.5 9.4 90 0.8 NW 2 7 1 4 1019.0 - 0.0
20/09:00pm 12.3 11.1 10.2 87 1.1 NW 7 7 4 4 1019.0 1019.0 0.0
20/08:30pm 12.5 11.4 9.8 83 1.4 SSW 6 9 3 5 1018.9 - 0.0
20/08:00pm 14.2 14.4 10.6 79 1.9 CALM 0 0 0 0 1018.6 - 0.0
20/07:30pm 14.1 13.0 9.8 75 2.2 ENE 6 9 3 5 1018.5 - 0.0
20/07:00pm 15.6 14.4 10.3 70 2.8 SSW 7 7 4 4 1018.6 - 0.0
20/06:30pm 15.2 13.5 9.8 70 2.8 SSW 9 15 5 8 1018.1 - 0.0
20/06:00pm 16.6 14.9 9.9 64 3.5 S 9 13 5 7 1017.4 1017.4 0.0
20/05:30pm 18.7 17.4 10.1 57 4.6 S 7 11 4 6 1017.5 - 0.0
20/05:00pm 21.3 18.6 9.1 45 6.5 S 13 17 7 9 1017.3 - 0.0
20/04:30pm 21.7 19.0 9.1 44 6.7 S 13 17 7 9 1017.3 - 0.0
20/04:00pm 22.7 19.8 8.1 39 7.7 SW 13 20 7 11 1016.9 - 0.0
20/03:30pm 22.9 20.3 7.6 37 8.0 SW 11 19 6 10 1016.9 - 0.0
20/03:00pm 22.8 19.9 8.0 38 7.8 W 13 17 7 9 1016.9 1016.9 0.0
20/02:30pm 22.7 20.0 7.5 37 7.9 S 11 19 6 10 1016.8 - 0.0
20/02:00pm 22.6 20.2 7.1 36 8.0 WNW 9 13 5 7 1016.8 - 0.0
20/01:30pm 22.9 21.1 7.3 36 8.1 W 6 9 3 5 1017.1 - 0.0
20/01:00pm 21.8 19.7 5.9 35 8.0 SW 6 11 3 6 1017.4 - 0.0
20/12:30pm 21.4 19.1 5.5 35 7.9 NW 7 17 4 9 1017.9 - 0.0
20/12:00pm 21.4 19.2 5.5 35 7.9 W 6 15 3 8 1018.2 1018.2 0.0
20/11:30am 20.5 18.1 5.2 36 7.5 N 7 11 4 6 1018.8 - 0.0
20/11:00am 20.1 17.9 5.5 38 7.2 N 6 15 3 8 1019.0 - 0.0
20/10:30am 19.4 16.7 5.5 40 6.8 N 9 13 5 7 1019.2 - 0.0
20/10:00am 19.1 17.4 5.9 42 6.5 WNW 4 9 2 5 1019.4 - 0.0
20/09:30am 17.9 15.4 6.6 47 5.6 NNE 9 13 5 7 1019.4 - 0.0
20/09:00am 16.3 14.6 7.5 56 4.4 NNE 6 9 3 5 1019.6 1019.6 0.2
20/08:30am 14.3 13.5 8.1 66 3.1 NNW 2 7 1 4 1019.4 - 0.2
20/08:00am 12.1 11.8 8.7 80 1.7 CALM 0 0 0 0 1019.2 - 0.2
20/07:30am 8.9 7.1 7.2 89 0.8 NNW 6 7 3 4 1018.9 - 0.2
20/07:00am 7.2 4.5 5.6 89 0.7 NNW 9 11 5 6 1018.6 - 0.2
20/06:30am 7.8 4.9 6.7 93 0.5 NNW 11 13 6 7 1018.4 - 0.2
20/06:00am 8.1 5.3 7.0 93 0.5 N 11 11 6 6 1018.3 1018.3 0.2
20/05:30am 8.8 8.2 7.3 90 0.7 CALM 0 0 0 0 1018.2 - 0.2
20/05:00am 10.4 10.1 8.8 90 0.8 CALM 0 0 0 0 1018.1 - 0.2
20/04:30am 11.0 10.8 9.0 87 1.0 CALM 0 0 0 0 1018.0 - 0.2
20/04:00am 10.9 10.7 8.9 87 1.0 CALM 0 0 0 0 1017.9 - 0.2
20/03:30am 10.9 10.6 8.7 86 1.1 CALM 0 0 0 0 1018.0 - 0.2
20/03:00am 10.6 9.2 8.8 89 0.9 NNW 6 9 3 5 1017.9 1017.9 0.2
20/02:30am 10.4 10.1 8.6 89 0.9 CALM 0 0 0 0 1017.9 - 0.2
20/02:00am 10.0 8.5 8.4 90 0.8 N 6 9 3 5 1018.2 - 0.2
20/01:30am 10.1 8.4 8.2 88 0.9 ESE 7 7 4 4 1018.3 - 0.2
20/01:00am 10.6 10.2 8.1 84 1.2 CALM 0 0 0 0 1018.3 - 0.2
20/12:30am 10.0 9.2 8.1 88 0.9 W 2 6 1 3 1018.4 - 0.2
20/12:00am 10.3 9.3 7.4 82 1.4 W 2 7 1 4 1018.4 1018.4 0.2
 
Date/Time
CST
Temp
°C
App
Temp
°C
Dew
Point
Rel
Hum
%
Delta-T
°C
Wind Press
QNH
hPa
Press
MSL
hPa
Rain
since 9 am
mm
Dir
 
Spd
km/h
Gust
km/h
Spd
kts
Gust
kts
19/11:30pm 10.5 7.3 6.9 78 1.7 W 13 17 7 9 1018.5 - 0.2
19/11:00pm 7.9 5.8 5.7 86 1.0 W 6 11 3 6 1018.6 - 0.2
19/10:30pm 9.4 6.9 6.4 81 1.4 W 9 11 5 6 1019.0 - 0.2
19/10:00pm 10.7 8.0 7.4 80 1.6 W 11 13 6 7 1019.2 - 0.2
19/09:30pm 10.4 7.7 7.5 82 1.4 W 11 15 6 8 1019.3 - 0.2
19/09:00pm 8.7 7.8 6.1 84 1.2 CALM 0 0 0 0 1019.2 1019.2 0.2
19/08:30pm 11.4 9.0 7.0 74 2.1 W 9 11 5 6 1019.3 - 0.2
19/08:00pm 11.7 9.7 6.4 70 2.5 SW 6 11 3 6 1019.2 - 0.2
19/07:30pm 12.3 9.4 6.6 68 2.7 SSW 11 13 6 7 1019.1 - 0.2
19/07:00pm 14.4 13.4 5.5 55 4.2 CALM 0 2 0 1 1019.0 - 0.2
19/06:30pm 14.4 13.7 6.8 60 3.7 CALM 0 0 0 0 1019.1 - 0.2
19/06:00pm 14.9 12.8 6.7 58 4.0 ESE 7 9 4 5 1018.9 1018.9 0.2
19/05:30pm 15.8 13.5 5.6 50 4.9 E 7 9 4 5 1018.9 - 0.2
19/05:00pm 16.4 13.5 4.8 46 5.5 ESE 9 13 5 7 1018.8 - 0.2
19/04:30pm 17.1 14.2 4.4 43 6.0 ESE 9 13 5 7 1018.9 - 0.2
19/04:00pm 17.4 14.7 3.9 40 6.3 E 7 9 4 5 1019.1 - 0.2
19/03:30pm 17.8 15.2 4.3 40 6.4 NNE 7 13 4 7 1019.3 - 0.2
19/03:00pm 17.2 13.7 3.6 40 6.3 NNE 11 17 6 9 1019.6 1019.6 0.2
19/02:30pm 17.8 14.1 4.3 40 6.4 NNE 13 20 7 11 1019.5 - 0.2
19/02:00pm 18.0 15.0 4.0 39 6.6 ENE 9 19 5 10 1020.0 - 0.2
19/01:30pm 16.8 13.5 4.8 45 5.7 ENE 11 15 6 8 1020.4 - 0.2
19/01:00pm 16.7 14.3 5.2 46 5.5 NNE 7 11 4 6 1021.0 - 0.0
19/12:30pm 16.4 13.6 5.0 47 5.4 NE 9 15 5 8 1021.5 - 0.0
19/12:00pm 16.0 12.8 5.0 48 5.2 ENE 11 15 6 8 1022.0 1022.0 0.0
19/11:30am 16.1 13.9 5.1 48 5.2 N 6 11 3 6 1022.4 - 0.0
19/11:00am 15.8 13.2 4.4 46 5.3 NNE 7 11 4 6 1022.9 - 0.0
19/10:30am 15.8 13.0 6.8 55 4.4 NE 11 17 6 9 1023.2 - 0.0
19/10:00am 16.0 12.8 6.8 54 4.5 NNE 13 19 7 10 1023.3 - 0.0
19/09:30am 15.4 12.4 7.5 59 3.9 NNE 13 15 7 8 1023.7 - 0.0
19/09:00am 14.8 12.5 9.1 68 2.9 NNE 11 15 6 8 1023.8 1023.8 0.2
19/08:30am 13.4 12.5 9.3 76 2.1 ENE 4 9 2 5 1023.8 - 0.2
19/08:00am 11.9 11.4 9.5 85 1.2 S 2 6 1 3 1023.5 - 0.2
19/07:30am 9.3 7.7 8.0 92 0.6 SSE 6 7 3 4 1023.2 - 0.2
19/07:00am 9.5 9.0 8.0 90 0.7 CALM 0 0 0 0 1023.1 - 0.2
19/06:30am 10.7 8.8 8.9 89 0.9 WNW 9 13 5 7 1023.0 - 0.2
19/06:00am 10.6 10.4 9.2 91 0.7 CALM 0 7 0 4 1022.7 1022.7 0.2
19/05:30am 10.8 10.6 9.2 90 0.8 CALM 0 0 0 0 1022.6 - 0.2
19/05:00am 10.8 9.9 9.2 90 0.8 SE 4 6 2 3 1022.6 - 0.2
19/04:30am 10.7 9.2 9.1 90 0.8 SSE 7 9 4 5 1022.7 - 0.2
19/04:00am 10.9 9.2 8.4 84 1.2 WNW 7 11 4 6 1022.4 - 0.2
19/03:30am 10.8 10.5 8.8 87 1.0 CALM 0 0 0 0 1022.6 - 0.2
19/03:00am 10.8 10.6 9.0 89 0.9 CALM 0 0 0 0 1022.7 1022.7 0.2
19/02:30am 10.7 9.0 8.4 86 1.1 NW 7 9 4 5 1022.9 - 0.2
19/02:00am 10.6 8.9 8.3 86 1.1 NW 7 9 4 5 1023.1 - 0.2
19/01:30am 9.8 9.4 8.4 91 0.7 CALM 0 6 0 3 1023.2 - 0.2
19/01:00am 9.3 8.1 8.0 92 0.6 WSW 4 6 2 3 1023.3 - 0.2
19/12:30am 8.9 8.4 7.8 93 0.5 CALM 0 6 0 3 1023.4 - 0.2
19/12:00am 7.5 6.1 5.7 88 0.8 W 2 9 1 5 1023.4 1023.4 0.2
 
Date/Time
CST
Temp
°C
App
Temp
°C
Dew
Point
Rel
Hum
%
Delta-T
°C
Wind Press
QNH
hPa
Press
MSL
hPa
Rain
since 9 am
mm
Dir
 
Spd
km/h
Gust
km/h
Spd
kts
Gust
kts
18/11:30pm 6.8 4.5 5.0 88 0.8 W 6 9 3 5 1023.4 - 0.2
18/11:00pm 8.2 7.3 6.2 87 0.9 CALM 0 0 0 0 1023.4 - 0.2
18/10:30pm 8.4 7.6 6.4 87 0.9 CALM 0 0 0 0 1023.7 - 0.2
18/10:00pm 8.9 7.8 6.7 86 1.0 WSW 2 7 1 4 1023.9 - 0.2
18/09:30pm 9.4 6.1 6.6 83 1.3 SW 13 15 7 8 1023.9 - 0.2
18/09:00pm 9.8 6.2 6.6 80 1.5 WSW 15 17 8 9 1023.8 1023.8 0.2
18/08:30pm 10.4 6.7 6.3 76 1.9 WSW 15 15 8 8 1023.7 - 0.2
18/08:00pm 11.4 8.2 7.0 74 2.1 SW 13 15 7 8 1023.5 - 0.2
18/07:30pm 10.8 7.1 6.1 73 2.2 WSW 15 17 8 9 1023.4 - 0.2
18/07:00pm 11.4 7.7 6.3 71 2.4 WSW 15 17 8 9 1023.3 - 0.2
18/06:30pm 11.5 7.8 6.2 70 2.5 WSW 15 15 8 8 1023.2 - 0.2
18/06:00pm 12.0 8.6 5.8 66 2.9 SW 13 17 7 9 1023.1 1023.1 0.2
18/05:30pm 14.8 9.9 5.2 52 4.5 SSW 20 26 11 14 1022.8 - 0.2
18/05:00pm 16.1 10.0 2.8 41 6.0 S 24 32 13 17 1022.6 - 0.2
18/04:30pm 16.2 11.4 5.8 50 5.0 S 20 30 11 16 1022.5 - 0.2
18/04:00pm 17.8 11.7 4.8 42 6.2 S 26 39 14 21 1022.2 - 0.2
18/03:30pm 17.3 11.3 5.5 45 5.7 SSW 26 35 14 19 1022.0 - 0.2
18/03:00pm 18.6 12.4 6.0 43 6.2 SSW 28 41 15 22 1021.8 1021.8 0.2
18/02:30pm 18.5 13.2 6.6 45 5.9 S 24 37 13 20 1021.6 - 0.2
18/02:00pm 18.3 12.7 5.3 42 6.3 S 24 37 13 20 1021.6 - 0.2
18/01:30pm 18.4 11.7 5.7 43 6.2 SSW 30 43 16 23 1021.4 - 0.2
18/01:00pm 19.0 12.5 6.6 44 6.2 SSW 30 41 16 22 1021.6 - 0.2

Other Formats:

Comma delimited format used in spreadsheet applications
http://www.bom.gov.au/fwo/IDS60801/IDS60801.95818.axf

JavaScript Object Notation format (JSON) in row-major order
http://www.bom.gov.au/fwo/IDS60801/IDS60801.95818.json